Big Bend Natl Park, Texas
Current Conditions -  °F | °C
As of 2:35 AM on Saturday 25 Oct 2014 (Local Time) from KPRS Reporting Station
Clear Clear  
Wind Chill: 68°   Ceiling: Unl
Heat Index: 68°   Visibility: 10mi
Dew Point: 52°   Wind: 9mph
Humidity: 56%   Direction: 360°N
Pressure: 30.16"   Gusts: NA
Location:  29.2°N, 103.2°W
Report Text: KPRS 250735Z AUTO 36008KT 10SM CLR 20/11 A3016 RMK AO2 T02000110
Loading
Personal Weather Stations






























Interactive Weather Map
Tropical Storm Tracking
New forecast layout! Learn more

10-Day Weather Forecast

Advertisements
Track Severe Weather on mobile